createdAt,value
2019-04-21T00:01:22.370Z,6.50
2019-04-21T00:03:57.307Z,6.80
2019-04-21T00:06:48.460Z,7.00
2019-04-21T00:09:20.526Z,7.20
2019-04-21T00:11:54.156Z,7.10
2019-04-21T00:14:15.382Z,7.10
2019-04-21T00:16:44.316Z,7.20
2019-04-21T00:19:35.396Z,7.20
2019-04-21T00:22:19.181Z,7.30
2019-04-21T00:24:56.233Z,6.50
2019-04-21T00:27:28.109Z,5.80
2019-04-21T00:30:03.343Z,5.50
2019-04-21T00:32:32.003Z,5.20
2019-04-21T00:35:00.386Z,5.00
2019-04-21T00:37:42.584Z,5.00
2019-04-21T00:40:16.213Z,4.80
2019-04-21T00:42:43.649Z,4.60
2019-04-21T00:45:16.769Z,4.40
2019-04-21T00:47:51.038Z,4.50
2019-04-21T00:50:26.346Z,4.60
2019-04-21T00:53:05.488Z,4.70
2019-04-21T00:55:47.216Z,4.70
2019-04-21T00:58:17.559Z,4.50
2019-04-21T01:00:51.356Z,4.60
2019-04-21T01:03:24.694Z,4.70
2019-04-21T01:05:57.561Z,4.50
2019-04-21T01:08:21.426Z,4.50
2019-04-21T01:10:49.278Z,4.60
2019-04-21T01:16:02.851Z,4.30
2019-04-21T01:18:34.193Z,4.10
2019-04-21T01:20:42.900Z,3.90
2019-04-21T01:23:13.158Z,3.80
2019-04-21T01:25:55.690Z,3.90
2019-04-21T01:28:34.054Z,3.90
2019-04-21T01:31:08.789Z,3.70
2019-04-21T01:33:44.699Z,3.70
2019-04-21T01:36:08.271Z,3.70
2019-04-21T01:38:48.500Z,3.90
2019-04-21T01:41:22.802Z,3.90
2019-04-21T01:43:49.177Z,3.90
2019-04-21T01:46:21.956Z,3.90
2019-04-21T01:48:49.287Z,3.90
2019-04-21T01:51:22.067Z,3.90
2019-04-21T01:54:09.386Z,3.80
2019-04-21T01:57:03.387Z,3.70
2019-04-21T01:59:33.707Z,3.60
2019-04-21T02:02:13.637Z,3.50
2019-04-21T02:04:42.866Z,3.50
2019-04-21T02:07:10.259Z,3.40
2019-04-21T02:09:43.224Z,3.30
2019-04-21T02:12:20.494Z,3.10
2019-04-21T02:14:50.300Z,2.90
2019-04-21T02:17:18.692Z,2.80
2019-04-21T02:19:46.209Z,2.70
2019-04-21T02:22:27.419Z,2.50
2019-04-21T02:25:01.078Z,2.50
2019-04-21T02:27:31.100Z,2.60
2019-04-21T02:30:07.856Z,2.60
2019-04-21T02:32:43.556Z,2.50
2019-04-21T02:35:25.459Z,2.50
2019-04-21T02:37:55.544Z,2.40
2019-04-21T02:40:21.943Z,2.20
2019-04-21T02:43:03.334Z,2.10
2019-04-21T02:45:28.424Z,2.00
2019-04-21T02:48:04.387Z,2.00
2019-04-21T02:50:25.933Z,2.10
2019-04-21T02:53:04.755Z,2.10
2019-04-21T02:55:32.762Z,2.00
2019-04-21T02:58:18.261Z,2.00
2019-04-21T03:01:05.097Z,2.20
2019-04-21T03:06:39.686Z,2.30
2019-04-21T03:09:18.296Z,2.40
2019-04-21T03:11:53.422Z,2.30
2019-04-21T03:14:28.330Z,2.30
2019-04-21T03:16:40.599Z,2.10
2019-04-21T03:19:28.835Z,2.20
2019-04-21T03:21:57.409Z,2.10
2019-04-21T03:24:29.666Z,2.00
2019-04-21T03:27:09.831Z,1.90
2019-04-21T03:29:36.997Z,1.60
2019-04-21T03:34:56.723Z,1.50
2019-04-21T03:37:07.314Z,1.50
2019-04-21T03:42:19.841Z,1.60
2019-04-21T03:52:19.387Z,1.20
2019-04-21T04:01:05.916Z,1.60
2019-04-21T04:03:57.477Z,1.60
2019-04-21T04:09:31.400Z,1.50
2019-04-21T04:16:50.195Z,1.10
2019-04-21T04:19:36.227Z,0.90
2019-04-21T04:24:22.632Z,1.00
2019-04-21T04:31:50.922Z,1.30
2019-04-21T04:37:06.020Z,1.40
2019-04-21T04:47:16.720Z,1.20
2019-04-21T04:52:32.554Z,1.40
2019-04-21T04:57:40.082Z,1.70
2019-04-21T05:00:21.547Z,1.80
2019-04-21T05:02:33.260Z,1.90
2019-04-21T05:05:13.626Z,2.10
2019-04-21T05:07:42.834Z,2.20
2019-04-21T05:10:31.090Z,2.20
2019-04-21T05:12:40.275Z,2.30
2019-04-21T05:15:38.288Z,2.30
2019-04-21T05:17:43.237Z,2.40
2019-04-21T05:22:45.943Z,2.30
2019-04-21T05:25:08.346Z,2.30
2019-04-21T05:27:43.502Z,2.40
2019-04-21T05:30:29.049Z,2.50
2019-04-21T05:33:05.720Z,2.50
2019-04-21T05:35:49.288Z,2.60
2019-04-21T05:38:27.507Z,2.70
2019-04-21T05:40:52.702Z,2.90
2019-04-21T05:43:32.255Z,3.10
2019-04-21T05:46:10.451Z,3.40
2019-04-21T05:48:39.699Z,3.60
2019-04-21T05:51:10.613Z,3.80
2019-04-21T05:53:48.243Z,4.00
2019-04-21T05:56:22.993Z,4.20
2019-04-21T05:58:49.746Z,4.40
2019-04-21T06:01:30.150Z,4.60
2019-04-21T06:03:57.530Z,4.80
2019-04-21T06:06:34.094Z,5.20
2019-04-21T06:08:59.473Z,5.50
2019-04-21T06:11:30.862Z,5.90
2019-04-21T06:14:20.331Z,6.30
2019-04-21T06:16:39.662Z,6.40
2019-04-21T06:19:06.600Z,6.60
2019-04-21T06:21:41.748Z,6.90
2019-04-21T06:24:12.708Z,6.90
2019-04-21T06:26:59.925Z,7.20
2019-04-21T06:29:14.872Z,7.50
2019-04-21T06:32:12.745Z,8.10
2019-04-21T06:34:49.553Z,8.20
2019-04-21T06:37:07.855Z,8.30
2019-04-21T06:39:40.314Z,8.40
2019-04-21T06:42:02.536Z,8.70
2019-04-21T06:44:41.571Z,8.60
2019-04-21T06:47:17.938Z,8.60
2019-04-21T06:49:41.189Z,8.70
2019-04-21T06:52:30.543Z,9.00
2019-04-21T06:54:50.754Z,9.00
2019-04-21T06:57:26.080Z,9.00
2019-04-21T06:59:52.614Z,9.20
2019-04-21T07:02:36.157Z,9.50
2019-04-21T07:04:57.602Z,9.90
2019-04-21T07:07:25.594Z,10.00
2019-04-21T07:10:01.410Z,10.10
2019-04-21T07:12:32.176Z,10.00
2019-04-21T07:15:04.265Z,10.20
2019-04-21T07:17:32.245Z,10.30
2019-04-21T07:22:42.879Z,10.50
2019-04-21T07:25:13.869Z,10.80
2019-04-21T07:27:49.476Z,10.90
2019-04-21T07:30:20.884Z,10.90
2019-04-21T07:35:21.839Z,11.00
2019-04-21T07:37:53.662Z,11.20
2019-04-21T07:40:22.251Z,11.30
2019-04-21T07:42:56.151Z,11.80
2019-04-21T07:45:22.480Z,11.80
2019-04-21T07:48:00.943Z,11.50
2019-04-21T07:50:56.351Z,11.80
2019-04-21T07:53:38.226Z,12.00
2019-04-21T07:55:43.155Z,12.30
2019-04-21T07:58:36.421Z,12.30
2019-04-21T08:01:07.504Z,12.50
2019-04-21T08:03:43.920Z,12.60
2019-04-21T08:06:12.219Z,12.80
2019-04-21T08:08:44.853Z,12.80
2019-04-21T08:11:10.879Z,12.90
2019-04-21T08:13:45.882Z,13.30
2019-04-21T08:16:17.188Z,13.50
2019-04-21T08:18:49.547Z,13.80
2019-04-21T08:21:20.673Z,13.60
2019-04-21T08:23:47.908Z,14.20
2019-04-21T08:26:24.331Z,14.20
2019-04-21T08:29:01.059Z,14.10
2019-04-21T08:31:34.447Z,14.80
2019-04-21T08:34:07.692Z,14.90
2019-04-21T08:36:45.794Z,14.90
2019-04-21T08:39:06.517Z,15.00
2019-04-21T08:41:31.670Z,15.20
2019-04-21T08:44:10.672Z,15.00
2019-04-21T08:46:39.203Z,14.90
2019-04-21T08:49:15.621Z,15.60
2019-04-21T08:51:52.011Z,15.80
2019-04-21T08:54:23.543Z,15.80
2019-04-21T08:57:01.463Z,15.70
2019-04-21T08:59:55.153Z,15.80
2019-04-21T09:02:35.763Z,16.20
2019-04-21T09:05:04.649Z,15.90
2019-04-21T09:07:39.103Z,16.30
2019-04-21T09:10:03.242Z,16.80
2019-04-21T09:12:44.941Z,17.10
2019-04-21T09:15:12.129Z,17.00
2019-04-21T09:17:36.821Z,17.20
2019-04-21T09:20:17.322Z,17.40
2019-04-21T09:22:47.793Z,17.60
2019-04-21T09:25:21.164Z,17.20
2019-04-21T09:27:48.530Z,17.00
2019-04-21T09:30:06.964Z,17.20
2019-04-21T09:32:38.551Z,17.80
2019-04-21T09:35:11.269Z,17.90
2019-04-21T09:37:51.705Z,18.00
2019-04-21T09:40:15.367Z,18.40
2019-04-21T09:42:55.135Z,18.40
2019-04-21T09:45:17.699Z,18.70
2019-04-21T09:47:57.119Z,18.40
2019-04-21T09:50:20.345Z,18.20
2019-04-21T09:52:58.093Z,18.20
2019-04-21T09:55:25.034Z,18.80
2019-04-21T09:58:02.415Z,18.90
2019-04-21T10:00:29.314Z,19.80
2019-04-21T10:03:06.257Z,19.80
2019-04-21T10:05:29.935Z,19.40
2019-04-21T10:08:01.340Z,19.40
2019-04-21T10:10:34.113Z,19.60
2019-04-21T10:13:05.065Z,19.30
2019-04-21T10:15:35.589Z,19.60
2019-04-21T10:18:13.485Z,19.50
2019-04-21T10:20:44.774Z,20.30
2019-04-21T10:23:15.699Z,20.30
2019-04-21T10:25:46.415Z,20.80
2019-04-21T10:28:17.198Z,20.60
2019-04-21T10:30:48.887Z,20.50
2019-04-21T10:33:19.572Z,20.80
2019-04-21T10:35:50.884Z,21.40
2019-04-21T10:38:30.418Z,20.70
2019-04-21T10:40:54.381Z,20.80
2019-04-21T10:43:25.742Z,21.10
2019-04-21T10:45:57.065Z,21.50
2019-04-21T10:48:28.726Z,21.00
2019-04-21T10:51:01.102Z,21.30
2019-04-21T10:53:34.591Z,21.40
2019-04-21T10:56:15.658Z,21.60
2019-04-21T10:58:42.679Z,21.80
2019-04-21T11:01:23.188Z,21.80
2019-04-21T11:04:07.469Z,21.60
2019-04-21T11:06:38.812Z,22.30
2019-04-21T11:09:10.852Z,22.50
2019-04-21T11:11:44.572Z,22.70
2019-04-21T11:14:15.498Z,22.10
2019-04-21T11:16:47.499Z,22.90
2019-04-21T11:19:18.015Z,22.30
2019-04-21T11:21:49.302Z,22.50
2019-04-21T11:24:20.895Z,22.40
2019-04-21T11:26:51.972Z,22.30
2019-04-21T11:29:23.275Z,22.50
2019-04-21T11:31:54.834Z,22.40
2019-04-21T11:34:25.679Z,23.00
2019-04-21T11:36:56.339Z,23.10
2019-04-21T11:39:38.652Z,22.70
2019-04-21T11:42:06.095Z,22.70
2019-04-21T11:44:37.332Z,23.30
2019-04-21T11:47:10.351Z,24.30
2019-04-21T11:49:41.150Z,23.70
2019-04-21T11:52:11.579Z,23.40
2019-04-21T11:54:42.787Z,23.50
2019-04-21T11:57:20.291Z,23.60
2019-04-21T11:59:45.909Z,24.10
2019-04-21T12:02:17.267Z,24.40
2019-04-21T12:04:48.015Z,23.80
2019-04-21T12:07:19.608Z,24.00
2019-04-21T12:09:51.215Z,24.80
2019-04-21T12:12:21.663Z,25.20
2019-04-21T12:14:52.211Z,25.40
2019-04-21T12:17:23.732Z,25.20
2019-04-21T12:19:54.754Z,26.10
2019-04-21T12:22:30.277Z,26.20
2019-04-21T12:24:58.095Z,26.30
2019-04-21T12:27:29.824Z,26.20
2019-04-21T12:30:00.247Z,25.80
2019-04-21T12:32:53.830Z,25.80
2019-04-21T12:35:26.020Z,25.90
2019-04-21T12:37:56.613Z,26.90
2019-04-21T12:40:28.444Z,27.30
2019-04-21T12:42:59.005Z,28.40
2019-04-21T12:45:28.980Z,28.10
2019-04-21T12:48:00.053Z,29.10
2019-04-21T12:50:30.245Z,27.40
2019-04-21T12:53:00.659Z,26.50
2019-04-21T12:55:37.008Z,27.50
2019-04-21T12:58:05.538Z,28.70
2019-04-21T13:00:36.759Z,29.20
2019-04-21T13:03:07.790Z,29.90
2019-04-21T13:05:38.007Z,28.90
2019-04-21T13:08:09.231Z,29.20
2019-04-21T13:10:40.212Z,30.10
2019-04-21T13:13:12.138Z,28.90
2019-04-21T13:15:43.373Z,29.50
2019-04-21T13:18:14.371Z,30.50
2019-04-21T13:20:46.354Z,28.80
2019-04-21T13:23:16.878Z,27.90
2019-04-21T13:25:47.891Z,27.80
2019-04-21T13:28:18.739Z,29.20
2019-04-21T13:30:49.064Z,28.90
2019-04-21T13:33:20.988Z,28.50
2019-04-21T13:35:53.019Z,28.30
2019-04-21T13:38:34.619Z,29.20
2019-04-21T13:41:32.685Z,28.30
2019-04-21T13:44:10.964Z,27.80
2019-04-21T13:46:42.989Z,28.10
2019-04-21T13:49:13.742Z,28.90
2019-04-21T13:51:44.140Z,27.90
2019-04-21T13:54:15.612Z,29.80
2019-04-21T13:56:46.883Z,29.30
2019-04-21T13:59:18.555Z,28.70
2019-04-21T14:01:49.840Z,27.50
2019-04-21T14:04:20.406Z,28.60
2019-04-21T14:06:52.107Z,28.70
2019-04-21T14:09:34.258Z,29.30
2019-04-21T14:11:55.759Z,28.90
2019-04-21T14:14:28.357Z,29.60
2019-04-21T14:17:00.408Z,31.20
2019-04-21T14:19:31.138Z,31.00
2019-04-21T14:22:01.287Z,29.90
2019-04-21T14:24:31.405Z,29.90
2019-04-21T14:27:02.761Z,29.60
2019-04-21T14:29:33.479Z,29.20
2019-04-21T14:32:06.374Z,27.40
2019-04-21T14:34:37.692Z,27.70
2019-04-21T14:37:08.781Z,27.80
2019-04-21T14:39:50.435Z,28.20
2019-04-21T14:42:11.909Z,28.70
2019-04-21T14:44:42.921Z,28.40
2019-04-21T14:47:48.287Z,28.40
2019-04-21T14:50:32.695Z,28.60
2019-04-21T14:53:25.546Z,28.00
2019-04-21T14:55:57.492Z,28.00
2019-04-21T14:58:27.841Z,28.80
2019-04-21T15:01:02.191Z,27.90
2019-04-21T15:03:32.406Z,28.40
2019-04-21T15:06:03.260Z,27.90
2019-04-21T15:08:33.644Z,28.30
2019-04-21T15:11:05.300Z,28.50
2019-04-21T15:13:37.720Z,28.50
2019-04-21T15:16:08.956Z,28.20
2019-04-21T15:18:40.907Z,28.60
2019-04-21T15:21:11.468Z,28.50
2019-04-21T15:23:42.417Z,28.70
2019-04-21T15:26:12.722Z,28.90
2019-04-21T15:28:42.924Z,27.60
2019-04-21T15:31:21.845Z,28.00
2019-04-21T15:33:45.474Z,27.90
2019-04-21T15:36:16.689Z,28.20
2019-04-21T15:38:47.884Z,28.10
2019-04-21T15:41:18.762Z,27.80
2019-04-21T15:43:48.902Z,28.80
2019-04-21T15:46:20.451Z,28.50
2019-04-21T15:48:51.085Z,28.20
2019-04-21T15:51:22.033Z,27.80
2019-04-21T15:53:52.445Z,28.70
2019-04-21T15:56:56.901Z,29.10
2019-04-21T15:59:52.902Z,28.40
2019-04-21T16:02:42.542Z,28.10
2019-04-21T16:05:14.930Z,28.70
2019-04-21T16:07:45.650Z,29.00
2019-04-21T16:10:29.982Z,28.50
2019-04-21T16:12:49.757Z,27.80
2019-04-21T16:15:20.952Z,28.70
2019-04-21T16:17:51.223Z,28.30
2019-04-21T16:20:22.118Z,27.90
2019-04-21T16:22:52.842Z,27.70
2019-04-21T16:25:23.769Z,27.40
2019-04-21T16:27:55.134Z,27.60
2019-04-21T16:30:26.097Z,27.00
2019-04-21T16:32:56.454Z,26.30
2019-04-21T16:35:27.907Z,26.40
2019-04-21T16:37:59.481Z,26.90
2019-04-21T16:40:41.331Z,27.20
2019-04-21T16:43:01.767Z,26.80
2019-04-21T16:45:32.734Z,27.50
2019-04-21T16:48:07.380Z,27.00
2019-04-21T16:50:37.597Z,27.30
2019-04-21T16:53:28.246Z,26.70
2019-04-21T16:56:20.650Z,26.90
2019-04-21T16:59:10.554Z,26.90
2019-04-21T17:01:40.815Z,27.10
2019-04-21T17:04:12.795Z,26.90
2019-04-21T17:06:43.163Z,27.10
2019-04-21T17:09:14.627Z,27.40
2019-04-21T17:11:46.946Z,27.50
2019-04-21T17:16:24.410Z,27.20
2019-04-21T17:17:15.638Z,26.60
2019-04-21T17:19:27.775Z,26.60
2019-04-21T17:21:55.818Z,26.30
2019-04-21T17:24:26.435Z,25.90
2019-04-21T17:26:57.415Z,26.00
2019-04-21T17:29:28.507Z,25.50
2019-04-21T17:31:59.724Z,25.20
2019-04-21T17:34:33.699Z,25.30
2019-04-21T17:37:03.503Z,25.20
2019-04-21T17:39:34.600Z,25.50
2019-04-21T17:42:18.590Z,25.50
2019-04-21T17:44:39.209Z,25.20
2019-04-21T17:47:25.793Z,25.10
2019-04-21T17:49:44.499Z,24.60
2019-04-21T17:52:40.122Z,24.00
2019-04-21T17:55:18.378Z,23.50
2019-04-21T17:58:06.615Z,23.10
2019-04-21T18:00:57.526Z,23.00
2019-04-21T18:03:18.813Z,22.80
2019-04-21T18:05:42.022Z,22.20
2019-04-21T18:08:19.247Z,21.60
2019-04-21T18:10:44.018Z,20.90
2019-04-21T18:13:09.947Z,20.50
2019-04-21T18:15:46.995Z,19.90
2019-04-21T18:18:06.267Z,19.90
2019-04-21T18:20:39.978Z,20.00
2019-04-21T18:23:39.501Z,19.60
2019-04-21T18:26:07.682Z,19.80
2019-04-21T18:28:34.587Z,19.10
2019-04-21T18:31:12.141Z,18.80
2019-04-21T18:33:58.975Z,18.70
2019-04-21T18:36:34.894Z,18.20
2019-04-21T18:39:38.103Z,18.20
2019-04-21T18:42:26.690Z,17.50
2019-04-21T18:48:19.442Z,16.20
2019-04-21T18:51:02.862Z,15.70
2019-04-21T18:53:52.148Z,15.20
2019-04-21T18:56:11.966Z,15.00
2019-04-21T18:58:42.543Z,14.80
2019-04-21T19:01:20.736Z,14.60
2019-04-21T19:03:47.680Z,14.40
2019-04-21T19:06:25.594Z,14.30
2019-04-21T19:09:30.901Z,14.20
2019-04-21T19:11:36.037Z,14.10
2019-04-21T19:14:29.108Z,14.00
2019-04-21T19:16:57.661Z,13.80
2019-04-21T19:21:57.047Z,13.40
2019-04-21T19:24:29.252Z,13.30
2019-04-21T19:27:05.161Z,13.10
2019-04-21T19:29:31.976Z,12.90
2019-04-21T19:32:05.848Z,12.80
2019-04-21T19:34:23.649Z,12.70
2019-04-21T19:36:57.131Z,12.80
2019-04-21T19:39:37.888Z,12.80
2019-04-21T19:42:05.672Z,12.70
2019-04-21T19:44:43.616Z,12.70
2019-04-21T19:47:19.790Z,12.60
2019-04-21T19:49:49.516Z,12.60
2019-04-21T19:52:08.686Z,12.50
2019-04-21T19:54:36.305Z,12.30
2019-04-21T19:57:04.933Z,12.20
2019-04-21T19:59:42.650Z,12.20
2019-04-21T20:02:08.978Z,12.10
2019-04-21T20:04:46.950Z,12.00
2019-04-21T20:07:30.721Z,12.00
2019-04-21T20:09:57.565Z,12.00
2019-04-21T20:12:35.542Z,12.20
2019-04-21T20:15:10.614Z,12.40
2019-04-21T20:17:36.435Z,12.30
2019-04-21T20:19:52.030Z,12.10
2019-04-21T20:22:29.885Z,11.90
2019-04-21T20:25:02.337Z,11.70
2019-04-21T20:27:38.606Z,11.50
2019-04-21T20:30:13.500Z,11.00
2019-04-21T20:32:49.334Z,10.70
2019-04-21T20:35:25.036Z,10.50
2019-04-21T20:37:47.744Z,10.40
2019-04-21T20:40:21.973Z,10.30
2019-04-21T20:42:52.569Z,10.40
2019-04-21T20:47:48.811Z,10.60
2019-04-21T20:50:29.866Z,10.50
2019-04-21T20:53:06.014Z,10.30
2019-04-21T20:55:29.080Z,10.20
2019-04-21T20:58:03.115Z,10.10
2019-04-21T21:00:47.177Z,10.00
2019-04-21T21:03:11.958Z,9.80
2019-04-21T21:05:39.902Z,9.70
2019-04-21T21:08:17.948Z,9.60
2019-04-21T21:10:44.862Z,9.60
2019-04-21T21:13:29.640Z,9.50
2019-04-21T21:16:04.110Z,9.50
2019-04-21T21:18:52.098Z,9.40
2019-04-21T21:20:59.952Z,9.60
2019-04-21T21:23:28.022Z,9.70
2019-04-21T21:26:04.403Z,9.90
2019-04-21T21:28:30.908Z,10.00
2019-04-21T21:31:04.300Z,10.00
2019-04-21T21:33:39.951Z,9.90
2019-04-21T21:36:12.380Z,9.50
2019-04-21T21:38:43.718Z,9.20
2019-04-21T21:41:07.550Z,9.00
2019-04-21T21:43:28.937Z,8.90
2019-04-21T21:46:01.608Z,8.90
2019-04-21T21:48:44.998Z,8.80
2019-04-21T21:51:10.364Z,8.80
2019-04-21T21:53:38.163Z,8.40
2019-04-21T21:56:07.162Z,8.20
2019-04-21T21:58:42.348Z,8.10
2019-04-21T22:01:14.835Z,8.00
2019-04-21T22:03:47.245Z,8.00
2019-04-21T22:06:22.234Z,8.10
2019-04-21T22:08:50.458Z,8.30
2019-04-21T22:11:22.138Z,8.10
2019-04-21T22:14:01.909Z,8.00
2019-04-21T22:16:38.983Z,7.90
2019-04-21T22:19:20.257Z,7.70
2019-04-21T22:21:47.718Z,7.50
2019-04-21T22:24:09.444Z,7.50
2019-04-21T22:26:33.206Z,7.50
2019-04-21T22:29:05.628Z,7.50
2019-04-21T22:31:39.241Z,7.40
2019-04-21T22:34:12.252Z,7.30
2019-04-21T22:36:48.716Z,7.10
2019-04-21T22:39:28.248Z,7.10
2019-04-21T22:41:47.567Z,7.10
2019-04-21T22:44:20.711Z,6.90
2019-04-21T22:47:02.918Z,6.90
2019-04-21T22:49:24.749Z,6.90
2019-04-21T22:51:55.711Z,6.70
2019-04-21T22:54:35.470Z,6.50
2019-04-21T22:57:07.257Z,6.40
2019-04-21T22:59:32.424Z,6.30
2019-04-21T23:02:06.368Z,6.30
2019-04-21T23:04:41.757Z,6.20
2019-04-21T23:07:11.637Z,6.20
2019-04-21T23:09:40.496Z,6.40
2019-04-21T23:12:12.442Z,6.30
2019-04-21T23:14:53.432Z,6.40
2019-04-21T23:17:34.067Z,6.50
2019-04-21T23:20:08.873Z,6.60
2019-04-21T23:22:46.808Z,6.70
2019-04-21T23:25:09.498Z,6.90
2019-04-21T23:27:38.766Z,7.10
2019-04-21T23:30:19.803Z,7.50
2019-04-21T23:32:36.269Z,7.70
2019-04-21T23:35:09.246Z,8.00
2019-04-21T23:37:34.216Z,8.30
2019-04-21T23:40:11.989Z,8.70
2019-04-21T23:42:39.793Z,8.80
2019-04-21T23:45:12.178Z,8.70
2019-04-21T23:47:53.772Z,8.60
2019-04-21T23:50:25.117Z,8.70
2019-04-21T23:52:49.902Z,8.50
2019-04-21T23:55:21.150Z,7.90
2019-04-21T23:57:56.115Z,7.70
